sensor_id;sensor_type;location;lat;lon;timestamp;P1;durP1;ratioP1;P2;durP2;ratioP2
22644;SDS011;11489;50.834;6.752;2023-05-10T00:00:12;9.00;;;6.55;;
22644;SDS011;11489;50.834;6.752;2023-05-10T00:02:38;9.77;;;7.00;;
22644;SDS011;11489;50.834;6.752;2023-05-10T00:05:05;9.25;;;7.10;;
22644;SDS011;11489;50.834;6.752;2023-05-10T00:07:31;8.32;;;6.78;;
22644;SDS011;11489;50.834;6.752;2023-05-10T00:09:57;9.40;;;6.95;;
22644;SDS011;11489;50.834;6.752;2023-05-10T00:12:23;8.32;;;6.40;;
22644;SDS011;11489;50.834;6.752;2023-05-10T00:14:49;8.52;;;6.68;;
22644;SDS011;11489;50.834;6.752;2023-05-10T00:17:14;9.75;;;6.57;;
22644;SDS011;11489;50.834;6.752;2023-05-10T00:19:40;9.43;;;7.15;;
22644;SDS011;11489;50.834;6.752;2023-05-10T00:22:05;9.38;;;7.20;;
22644;SDS011;11489;50.834;6.752;2023-05-10T00:24:31;9.70;;;7.25;;
22644;SDS011;11489;50.834;6.752;2023-05-10T00:26:57;8.93;;;7.03;;
22644;SDS011;11489;50.834;6.752;2023-05-10T00:29:22;10.25;;;7.20;;
22644;SDS011;11489;50.834;6.752;2023-05-10T00:31:49;10.55;;;7.45;;
22644;SDS011;11489;50.834;6.752;2023-05-10T00:34:14;10.88;;;8.20;;
22644;SDS011;11489;50.834;6.752;2023-05-10T00:36:40;12.38;;;8.63;;
22644;SDS011;11489;50.834;6.752;2023-05-10T00:39:06;12.05;;;8.73;;
22644;SDS011;11489;50.834;6.752;2023-05-10T00:41:33;12.70;;;9.00;;
22644;SDS011;11489;50.834;6.752;2023-05-10T00:43:58;13.35;;;9.50;;
22644;SDS011;11489;50.834;6.752;2023-05-10T00:46:24;13.48;;;9.13;;
22644;SDS011;11489;50.834;6.752;2023-05-10T00:48:50;12.35;;;9.38;;
22644;SDS011;11489;50.834;6.752;2023-05-10T00:51:16;12.68;;;9.18;;
22644;SDS011;11489;50.834;6.752;2023-05-10T00:53:43;12.80;;;9.43;;
22644;SDS011;11489;50.834;6.752;2023-05-10T00:56:11;11.63;;;8.27;;
22644;SDS011;11489;50.834;6.752;2023-05-10T00:58:37;11.95;;;8.35;;
22644;SDS011;11489;50.834;6.752;2023-05-10T01:01:04;11.65;;;8.50;;
22644;SDS011;11489;50.834;6.752;2023-05-10T01:03:31;10.20;;;7.93;;
22644;SDS011;11489;50.834;6.752;2023-05-10T01:05:57;10.02;;;7.43;;
22644;SDS011;11489;50.834;6.752;2023-05-10T01:08:23;9.32;;;6.95;;
22644;SDS011;11489;50.834;6.752;2023-05-10T01:10:50;10.75;;;7.13;;
22644;SDS011;11489;50.834;6.752;2023-05-10T01:13:23;8.80;;;6.72;;
22644;SDS011;11489;50.834;6.752;2023-05-10T01:16:02;10.70;;;7.25;;
22644;SDS011;11489;50.834;6.752;2023-05-10T01:18:29;11.32;;;7.05;;
22644;SDS011;11489;50.834;6.752;2023-05-10T01:21:04;9.27;;;6.93;;
22644;SDS011;11489;50.834;6.752;2023-05-10T01:23:39;10.95;;;7.07;;
22644;SDS011;11489;50.834;6.752;2023-05-10T01:29:18;9.77;;;6.70;;
22644;SDS011;11489;50.834;6.752;2023-05-10T01:32:06;9.45;;;6.95;;
22644;SDS011;11489;50.834;6.752;2023-05-10T01:35:06;11.65;;;7.05;;
22644;SDS011;11489;50.834;6.752;2023-05-10T01:37:42;12.13;;;6.88;;
22644;SDS011;11489;50.834;6.752;2023-05-10T01:40:20;12.43;;;7.45;;
22644;SDS011;11489;50.834;6.752;2023-05-10T01:42:53;12.05;;;7.43;;
22644;SDS011;11489;50.834;6.752;2023-05-10T01:48:07;12.77;;;8.50;;
22644;SDS011;11489;50.834;6.752;2023-05-10T01:50:35;13.80;;;9.20;;
22644;SDS011;11489;50.834;6.752;2023-05-10T01:53:04;14.32;;;9.20;;
22644;SDS011;11489;50.834;6.752;2023-05-10T01:55:32;12.48;;;8.45;;
22644;SDS011;11489;50.834;6.752;2023-05-10T01:58:07;13.65;;;9.15;;
22644;SDS011;11489;50.834;6.752;2023-05-10T02:00:35;14.98;;;8.00;;
22644;SDS011;11489;50.834;6.752;2023-05-10T02:03:05;13.13;;;8.68;;
22644;SDS011;11489;50.834;6.752;2023-05-10T02:05:33;12.43;;;7.90;;
22644;SDS011;11489;50.834;6.752;2023-05-10T02:08:01;11.48;;;7.68;;
22644;SDS011;11489;50.834;6.752;2023-05-10T02:10:28;10.30;;;6.60;;
22644;SDS011;11489;50.834;6.752;2023-05-10T02:12:55;9.45;;;6.03;;
22644;SDS011;11489;50.834;6.752;2023-05-10T02:15:24;9.38;;;5.85;;
22644;SDS011;11489;50.834;6.752;2023-05-10T02:17:52;9.45;;;6.05;;
22644;SDS011;11489;50.834;6.752;2023-05-10T02:20:20;10.98;;;6.63;;
22644;SDS011;11489;50.834;6.752;2023-05-10T02:22:52;8.73;;;6.15;;
22644;SDS011;11489;50.834;6.752;2023-05-10T02:25:20;9.63;;;6.25;;
22644;SDS011;11489;50.834;6.752;2023-05-10T02:27:48;10.15;;;6.38;;
22644;SDS011;11489;50.834;6.752;2023-05-10T02:30:15;10.48;;;6.57;;
22644;SDS011;11489;50.834;6.752;2023-05-10T02:32:41;12.68;;;6.90;;
22644;SDS011;11489;50.834;6.752;2023-05-10T02:35:08;11.73;;;7.47;;
22644;SDS011;11489;50.834;6.752;2023-05-10T02:37:36;11.75;;;7.47;;
22644;SDS011;11489;50.834;6.752;2023-05-10T02:40:04;12.52;;;7.95;;
22644;SDS011;11489;50.834;6.752;2023-05-10T02:42:32;13.52;;;7.75;;
22644;SDS011;11489;50.834;6.752;2023-05-10T02:45:01;12.07;;;7.68;;
22644;SDS011;11489;50.834;6.752;2023-05-10T02:47:28;12.48;;;7.50;;
22644;SDS011;11489;50.834;6.752;2023-05-10T02:49:54;12.82;;;8.02;;
22644;SDS011;11489;50.834;6.752;2023-05-10T02:52:25;12.80;;;7.55;;
22644;SDS011;11489;50.834;6.752;2023-05-10T02:54:54;12.52;;;8.10;;
22644;SDS011;11489;50.834;6.752;2023-05-10T02:57:25;13.45;;;7.82;;
22644;SDS011;11489;50.834;6.752;2023-05-10T02:59:54;15.50;;;8.10;;
22644;SDS011;11489;50.834;6.752;2023-05-10T03:02:20;14.20;;;7.75;;
22644;SDS011;11489;50.834;6.752;2023-05-10T03:04:46;14.32;;;7.88;;
22644;SDS011;11489;50.834;6.752;2023-05-10T03:07:11;14.38;;;7.82;;
22644;SDS011;11489;50.834;6.752;2023-05-10T03:09:38;12.23;;;8.10;;
22644;SDS011;11489;50.834;6.752;2023-05-10T03:20:31;13.82;;;8.18;;
22644;SDS011;11489;50.834;6.752;2023-05-10T03:23:04;12.88;;;7.88;;
22644;SDS011;11489;50.834;6.752;2023-05-10T03:25:37;17.10;;;9.45;;
22644;SDS011;11489;50.834;6.752;2023-05-10T03:28:05;15.98;;;9.23;;
22644;SDS011;11489;50.834;6.752;2023-05-10T03:30:31;16.77;;;9.73;;
22644;SDS011;11489;50.834;6.752;2023-05-10T03:32:57;17.23;;;9.27;;
22644;SDS011;11489;50.834;6.752;2023-05-10T03:35:28;16.27;;;9.73;;
22644;SDS011;11489;50.834;6.752;2023-05-10T03:37:54;17.65;;;10.27;;
22644;SDS011;11489;50.834;6.752;2023-05-10T03:40:20;19.40;;;10.88;;
22644;SDS011;11489;50.834;6.752;2023-05-10T03:42:45;18.25;;;10.38;;
22644;SDS011;11489;50.834;6.752;2023-05-10T03:45:11;18.33;;;11.18;;
22644;SDS011;11489;50.834;6.752;2023-05-10T03:47:37;19.00;;;11.38;;
22644;SDS011;11489;50.834;6.752;2023-05-10T03:50:02;18.75;;;11.05;;
22644;SDS011;11489;50.834;6.752;2023-05-10T03:52:29;20.98;;;11.68;;
22644;SDS011;11489;50.834;6.752;2023-05-10T03:54:54;22.80;;;12.40;;
22644;SDS011;11489;50.834;6.752;2023-05-10T03:57:22;16.77;;;11.68;;
22644;SDS011;11489;50.834;6.752;2023-05-10T03:59:48;17.63;;;11.60;;
22644;SDS011;11489;50.834;6.752;2023-05-10T04:02:13;17.98;;;11.50;;
22644;SDS011;11489;50.834;6.752;2023-05-10T04:04:39;17.88;;;11.05;;
22644;SDS011;11489;50.834;6.752;2023-05-10T04:07:05;16.90;;;11.10;;
22644;SDS011;11489;50.834;6.752;2023-05-10T04:09:30;16.92;;;11.23;;
22644;SDS011;11489;50.834;6.752;2023-05-10T04:11:56;17.27;;;10.65;;
22644;SDS011;11489;50.834;6.752;2023-05-10T04:14:23;18.35;;;11.10;;
22644;SDS011;11489;50.834;6.752;2023-05-10T04:16:49;19.83;;;12.25;;
22644;SDS011;11489;50.834;6.752;2023-05-10T04:19:14;19.85;;;11.18;;
22644;SDS011;11489;50.834;6.752;2023-05-10T04:21:40;18.27;;;11.48;;
22644;SDS011;11489;50.834;6.752;2023-05-10T04:24:06;18.05;;;11.07;;
22644;SDS011;11489;50.834;6.752;2023-05-10T04:26:31;16.20;;;11.25;;
22644;SDS011;11489;50.834;6.752;2023-05-10T04:28:57;18.73;;;11.30;;
22644;SDS011;11489;50.834;6.752;2023-05-10T04:31:23;15.85;;;11.25;;
22644;SDS011;11489;50.834;6.752;2023-05-10T04:33:48;18.15;;;11.05;;
22644;SDS011;11489;50.834;6.752;2023-05-10T04:36:15;15.85;;;11.02;;
22644;SDS011;11489;50.834;6.752;2023-05-10T04:38:40;18.05;;;11.05;;
22644;SDS011;11489;50.834;6.752;2023-05-10T04:41:06;19.65;;;12.07;;
22644;SDS011;11489;50.834;6.752;2023-05-10T04:43:33;17.17;;;10.98;;
22644;SDS011;11489;50.834;6.752;2023-05-10T04:45:59;17.90;;;11.57;;
22644;SDS011;11489;50.834;6.752;2023-05-10T04:48:25;17.08;;;10.88;;
22644;SDS011;11489;50.834;6.752;2023-05-10T04:50:51;17.25;;;10.82;;
22644;SDS011;11489;50.834;6.752;2023-05-10T04:53:17;21.50;;;11.73;;
22644;SDS011;11489;50.834;6.752;2023-05-10T04:55:42;20.70;;;12.38;;
22644;SDS011;11489;50.834;6.752;2023-05-10T04:58:08;22.27;;;12.82;;
22644;SDS011;11489;50.834;6.752;2023-05-10T05:00:34;21.40;;;12.32;;
22644;SDS011;11489;50.834;6.752;2023-05-10T05:03:00;22.73;;;12.90;;
22644;SDS011;11489;50.834;6.752;2023-05-10T05:05:25;24.05;;;14.27;;
22644;SDS011;11489;50.834;6.752;2023-05-10T05:07:51;19.75;;;12.57;;
22644;SDS011;11489;50.834;6.752;2023-05-10T05:10:17;21.70;;;12.95;;
22644;SDS011;11489;50.834;6.752;2023-05-10T05:12:43;21.85;;;12.82;;
22644;SDS011;11489;50.834;6.752;2023-05-10T05:15:08;18.77;;;12.48;;
22644;SDS011;11489;50.834;6.752;2023-05-10T05:17:34;20.45;;;12.32;;
22644;SDS011;11489;50.834;6.752;2023-05-10T05:20:00;23.63;;;12.30;;
22644;SDS011;11489;50.834;6.752;2023-05-10T05:22:26;19.13;;;11.80;;
22644;SDS011;11489;50.834;6.752;2023-05-10T05:24:56;20.70;;;11.43;;
22644;SDS011;11489;50.834;6.752;2023-05-10T05:27:23;23.73;;;12.30;;
22644;SDS011;11489;50.834;6.752;2023-05-10T05:29:54;23.08;;;11.98;;
22644;SDS011;11489;50.834;6.752;2023-05-10T05:32:21;19.30;;;10.90;;
22644;SDS011;11489;50.834;6.752;2023-05-10T05:34:48;19.88;;;11.32;;
22644;SDS011;11489;50.834;6.752;2023-05-10T05:37:17;18.17;;;10.82;;
22644;SDS011;11489;50.834;6.752;2023-05-10T05:39:44;16.77;;;10.57;;
22644;SDS011;11489;50.834;6.752;2023-05-10T05:42:10;17.13;;;10.45;;
22644;SDS011;11489;50.834;6.752;2023-05-10T05:44:37;17.35;;;10.43;;
22644;SDS011;11489;50.834;6.752;2023-05-10T05:47:03;16.48;;;9.90;;
22644;SDS011;11489;50.834;6.752;2023-05-10T05:49:29;16.70;;;10.40;;
22644;SDS011;11489;50.834;6.752;2023-05-10T05:51:58;19.98;;;10.55;;
22644;SDS011;11489;50.834;6.752;2023-05-10T05:54:25;13.55;;;9.45;;
22644;SDS011;11489;50.834;6.752;2023-05-10T05:56:53;16.00;;;9.02;;
22644;SDS011;11489;50.834;6.752;2023-05-10T05:59:22;14.40;;;8.60;;
22644;SDS011;11489;50.834;6.752;2023-05-10T06:01:48;14.73;;;8.75;;
22644;SDS011;11489;50.834;6.752;2023-05-10T06:04:14;15.43;;;8.82;;
22644;SDS011;11489;50.834;6.752;2023-05-10T06:06:40;16.83;;;8.73;;
22644;SDS011;11489;50.834;6.752;2023-05-10T06:09:05;12.48;;;7.75;;
22644;SDS011;11489;50.834;6.752;2023-05-10T06:11:31;14.30;;;8.55;;
22644;SDS011;11489;50.834;6.752;2023-05-10T06:13:57;12.90;;;7.68;;
22644;SDS011;11489;50.834;6.752;2023-05-10T06:16:23;13.63;;;7.20;;
22644;SDS011;11489;50.834;6.752;2023-05-10T06:18:49;13.05;;;7.05;;
22644;SDS011;11489;50.834;6.752;2023-05-10T06:21:14;10.40;;;7.38;;
22644;SDS011;11489;50.834;6.752;2023-05-10T06:23:41;10.90;;;6.75;;
22644;SDS011;11489;50.834;6.752;2023-05-10T06:26:07;15.00;;;7.18;;
22644;SDS011;11489;50.834;6.752;2023-05-10T06:28:32;13.10;;;7.13;;
22644;SDS011;11489;50.834;6.752;2023-05-10T06:30:58;10.70;;;6.38;;
22644;SDS011;11489;50.834;6.752;2023-05-10T06:33:24;14.13;;;6.78;;
22644;SDS011;11489;50.834;6.752;2023-05-10T06:35:50;11.63;;;6.40;;
22644;SDS011;11489;50.834;6.752;2023-05-10T06:38:16;11.85;;;6.90;;
22644;SDS011;11489;50.834;6.752;2023-05-10T06:40:42;13.05;;;6.53;;
22644;SDS011;11489;50.834;6.752;2023-05-10T06:43:08;14.10;;;6.85;;
22644;SDS011;11489;50.834;6.752;2023-05-10T06:45:35;13.10;;;7.35;;
22644;SDS011;11489;50.834;6.752;2023-05-10T06:48:00;14.45;;;7.50;;
22644;SDS011;11489;50.834;6.752;2023-05-10T06:50:26;15.90;;;7.68;;
22644;SDS011;11489;50.834;6.752;2023-05-10T06:52:52;15.55;;;7.90;;
22644;SDS011;11489;50.834;6.752;2023-05-10T06:55:18;16.10;;;8.05;;
22644;SDS011;11489;50.834;6.752;2023-05-10T06:57:43;13.85;;;7.72;;
22644;SDS011;11489;50.834;6.752;2023-05-10T07:00:09;16.42;;;7.88;;
22644;SDS011;11489;50.834;6.752;2023-05-10T07:02:35;15.60;;;7.50;;
22644;SDS011;11489;50.834;6.752;2023-05-10T07:05:01;16.75;;;7.53;;
22644;SDS011;11489;50.834;6.752;2023-05-10T07:07:27;12.57;;;7.00;;
22644;SDS011;11489;50.834;6.752;2023-05-10T07:09:53;13.85;;;7.25;;
22644;SDS011;11489;50.834;6.752;2023-05-10T07:12:18;12.77;;;6.88;;
22644;SDS011;11489;50.834;6.752;2023-05-10T07:14:44;15.25;;;6.72;;
22644;SDS011;11489;50.834;6.752;2023-05-10T07:17:10;13.73;;;6.43;;
22644;SDS011;11489;50.834;6.752;2023-05-10T07:19:36;11.75;;;6.60;;
22644;SDS011;11489;50.834;6.752;2023-05-10T07:22:02;10.38;;;5.55;;
22644;SDS011;11489;50.834;6.752;2023-05-10T07:24:27;12.75;;;5.95;;
22644;SDS011;11489;50.834;6.752;2023-05-10T07:26:53;14.30;;;5.90;;
22644;SDS011;11489;50.834;6.752;2023-05-10T07:29:19;8.38;;;4.88;;
22644;SDS011;11489;50.834;6.752;2023-05-10T07:31:44;7.55;;;4.75;;
22644;SDS011;11489;50.834;6.752;2023-05-10T07:34:10;9.73;;;5.50;;
22644;SDS011;11489;50.834;6.752;2023-05-10T07:36:36;8.00;;;4.55;;
22644;SDS011;11489;50.834;6.752;2023-05-10T07:39:01;6.78;;;3.95;;
22644;SDS011;11489;50.834;6.752;2023-05-10T07:41:27;5.65;;;3.55;;
22644;SDS011;11489;50.834;6.752;2023-05-10T07:43:53;7.07;;;3.35;;
22644;SDS011;11489;50.834;6.752;2023-05-10T07:46:18;5.25;;;3.17;;
22644;SDS011;11489;50.834;6.752;2023-05-10T07:48:47;3.72;;;2.38;;
22644;SDS011;11489;50.834;6.752;2023-05-10T07:51:12;3.33;;;2.20;;
22644;SDS011;11489;50.834;6.752;2023-05-10T07:53:38;3.92;;;2.50;;
22644;SDS011;11489;50.834;6.752;2023-05-10T07:56:26;3.53;;;2.30;;
22644;SDS011;11489;50.834;6.752;2023-05-10T07:58:54;3.17;;;1.70;;
22644;SDS011;11489;50.834;6.752;2023-05-10T08:01:20;1.77;;;1.25;;
22644;SDS011;11489;50.834;6.752;2023-05-10T08:03:47;3.55;;;1.00;;
22644;SDS011;11489;50.834;6.752;2023-05-10T08:06:13;0.88;;;0.70;;
22644;SDS011;11489;50.834;6.752;2023-05-10T08:08:40;1.58;;;1.33;;
22644;SDS011;11489;50.834;6.752;2023-05-10T08:11:07;3.33;;;2.30;;
22644;SDS011;11489;50.834;6.752;2023-05-10T08:13:32;4.25;;;2.88;;
22644;SDS011;11489;50.834;6.752;2023-05-10T08:15:59;4.70;;;2.85;;
22644;SDS011;11489;50.834;6.752;2023-05-10T08:18:24;5.20;;;2.90;;
22644;SDS011;11489;50.834;6.752;2023-05-10T08:20:50;3.50;;;2.28;;
22644;SDS011;11489;50.834;6.752;2023-05-10T08:23:16;4.45;;;2.67;;
22644;SDS011;11489;50.834;6.752;2023-05-10T08:25:41;3.90;;;2.55;;
22644;SDS011;11489;50.834;6.752;2023-05-10T08:28:07;2.90;;;2.50;;
22644;SDS011;11489;50.834;6.752;2023-05-10T08:30:32;4.60;;;2.47;;
22644;SDS011;11489;50.834;6.752;2023-05-10T08:32:58;4.18;;;2.20;;
22644;SDS011;11489;50.834;6.752;2023-05-10T08:35:24;3.67;;;2.33;;
22644;SDS011;11489;50.834;6.752;2023-05-10T08:37:50;2.00;;;1.80;;
22644;SDS011;11489;50.834;6.752;2023-05-10T08:40:16;2.15;;;1.60;;
22644;SDS011;11489;50.834;6.752;2023-05-10T08:42:45;1.80;;;1.52;;
22644;SDS011;11489;50.834;6.752;2023-05-10T08:45:31;2.05;;;1.73;;
22644;SDS011;11489;50.834;6.752;2023-05-10T08:48:01;1.48;;;1.38;;
22644;SDS011;11489;50.834;6.752;2023-05-10T08:50:27;1.67;;;1.38;;
22644;SDS011;11489;50.834;6.752;2023-05-10T08:52:55;1.70;;;1.40;;
22644;SDS011;11489;50.834;6.752;2023-05-10T08:55:25;2.85;;;1.63;;
22644;SDS011;11489;50.834;6.752;2023-05-10T08:57:51;2.85;;;1.88;;
22644;SDS011;11489;50.834;6.752;2023-05-10T09:00:16;3.60;;;2.85;;
22644;SDS011;11489;50.834;6.752;2023-05-10T09:02:43;5.70;;;3.40;;
22644;SDS011;11489;50.834;6.752;2023-05-10T09:05:11;7.68;;;3.45;;
22644;SDS011;11489;50.834;6.752;2023-05-10T09:07:37;8.23;;;4.60;;
22644;SDS011;11489;50.834;6.752;2023-05-10T09:10:04;8.20;;;4.50;;
22644;SDS011;11489;50.834;6.752;2023-05-10T09:12:30;8.85;;;5.20;;
22644;SDS011;11489;50.834;6.752;2023-05-10T09:14:56;9.75;;;5.57;;
22644;SDS011;11489;50.834;6.752;2023-05-10T09:17:24;11.18;;;6.10;;
22644;SDS011;11489;50.834;6.752;2023-05-10T09:19:56;17.73;;;7.50;;
22644;SDS011;11489;50.834;6.752;2023-05-10T09:22:24;13.80;;;7.65;;
22644;SDS011;11489;50.834;6.752;2023-05-10T09:25:03;13.93;;;8.70;;
22644;SDS011;11489;50.834;6.752;2023-05-10T09:27:33;16.38;;;9.57;;
22644;SDS011;11489;50.834;6.752;2023-05-10T09:29:59;15.73;;;9.43;;
22644;SDS011;11489;50.834;6.752;2023-05-10T09:32:35;20.42;;;10.38;;
22644;SDS011;11489;50.834;6.752;2023-05-10T09:35:15;14.75;;;8.70;;
22644;SDS011;11489;50.834;6.752;2023-05-10T09:37:43;15.82;;;8.57;;
22644;SDS011;11489;50.834;6.752;2023-05-10T09:40:15;14.65;;;7.32;;
22644;SDS011;11489;50.834;6.752;2023-05-10T09:45:24;12.07;;;7.03;;
22644;SDS011;11489;50.834;6.752;2023-05-10T09:47:50;11.32;;;7.20;;
22644;SDS011;11489;50.834;6.752;2023-05-10T09:50:16;10.82;;;6.97;;
22644;SDS011;11489;50.834;6.752;2023-05-10T09:52:46;12.48;;;8.02;;
22644;SDS011;11489;50.834;6.752;2023-05-10T09:55:16;16.10;;;7.88;;
22644;SDS011;11489;50.834;6.752;2023-05-10T09:57:43;13.48;;;7.78;;
22644;SDS011;11489;50.834;6.752;2023-05-10T10:00:09;17.90;;;9.52;;
22644;SDS011;11489;50.834;6.752;2023-05-10T10:02:35;12.60;;;7.78;;
22644;SDS011;11489;50.834;6.752;2023-05-10T10:05:01;12.52;;;7.82;;
22644;SDS011;11489;50.834;6.752;2023-05-10T10:07:30;9.50;;;5.93;;
22644;SDS011;11489;50.834;6.752;2023-05-10T10:09:57;11.32;;;6.75;;
22644;SDS011;11489;50.834;6.752;2023-05-10T10:12:24;11.13;;;6.32;;
22644;SDS011;11489;50.834;6.752;2023-05-10T10:14:50;7.70;;;4.57;;
22644;SDS011;11489;50.834;6.752;2023-05-10T10:17:17;5.18;;;3.78;;
22644;SDS011;11489;50.834;6.752;2023-05-10T10:19:44;3.97;;;3.33;;
22644;SDS011;11489;50.834;6.752;2023-05-10T10:22:13;2.75;;;2.55;;
22644;SDS011;11489;50.834;6.752;2023-05-10T10:24:39;2.95;;;2.42;;
22644;SDS011;11489;50.834;6.752;2023-05-10T10:27:11;2.90;;;2.63;;
22644;SDS011;11489;50.834;6.752;2023-05-10T10:29:47;4.93;;;2.40;;
22644;SDS011;11489;50.834;6.752;2023-05-10T10:32:33;2.97;;;2.28;;
22644;SDS011;11489;50.834;6.752;2023-05-10T10:35:01;3.47;;;2.55;;
22644;SDS011;11489;50.834;6.752;2023-05-10T10:37:43;2.33;;;2.13;;
22644;SDS011;11489;50.834;6.752;2023-05-10T10:40:29;1.88;;;1.63;;
22644;SDS011;11489;50.834;6.752;2023-05-10T10:42:56;1.83;;;1.40;;
22644;SDS011;11489;50.834;6.752;2023-05-10T10:45:23;2.53;;;2.03;;
22644;SDS011;11489;50.834;6.752;2023-05-10T10:48:19;3.20;;;1.67;;
22644;SDS011;11489;50.834;6.752;2023-05-10T10:50:46;1.60;;;1.50;;
22644;SDS011;11489;50.834;6.752;2023-05-10T10:53:12;1.33;;;1.23;;
22644;SDS011;11489;50.834;6.752;2023-05-10T10:55:47;1.38;;;1.25;;
22644;SDS011;11489;50.834;6.752;2023-05-10T10:58:29;2.72;;;2.42;;
22644;SDS011;11489;50.834;6.752;2023-05-10T11:01:15;4.25;;;2.47;;
22644;SDS011;11489;50.834;6.752;2023-05-10T11:06:44;2.40;;;1.92;;
22644;SDS011;11489;50.834;6.752;2023-05-10T11:09:10;2.20;;;1.92;;
22644;SDS011;11489;50.834;6.752;2023-05-10T11:11:53;2.90;;;1.90;;
22644;SDS011;11489;50.834;6.752;2023-05-10T11:14:23;2.95;;;2.40;;
22644;SDS011;11489;50.834;6.752;2023-05-10T11:16:49;2.20;;;2.00;;
22644;SDS011;11489;50.834;6.752;2023-05-10T11:19:15;2.10;;;1.80;;
22644;SDS011;11489;50.834;6.752;2023-05-10T11:24:30;1.50;;;1.40;;
22644;SDS011;11489;50.834;6.752;2023-05-10T11:26:56;1.30;;;1.20;;
22644;SDS011;11489;50.834;6.752;2023-05-10T11:29:22;2.53;;;1.50;;
22644;SDS011;11489;50.834;6.752;2023-05-10T11:31:48;1.55;;;1.40;;
22644;SDS011;11489;50.834;6.752;2023-05-10T11:34:27;1.95;;;1.77;;
22644;SDS011;11489;50.834;6.752;2023-05-10T11:37:00;1.52;;;1.38;;
22644;SDS011;11489;50.834;6.752;2023-05-10T11:39:26;1.90;;;1.60;;
22644;SDS011;11489;50.834;6.752;2023-05-10T11:41:53;2.03;;;1.65;;
22644;SDS011;11489;50.834;6.752;2023-05-10T11:44:19;2.15;;;1.80;;
22644;SDS011;11489;50.834;6.752;2023-05-10T11:46:45;2.30;;;2.00;;
22644;SDS011;11489;50.834;6.752;2023-05-10T11:49:11;3.35;;;1.80;;
22644;SDS011;11489;50.834;6.752;2023-05-10T11:51:38;2.67;;;1.90;;
22644;SDS011;11489;50.834;6.752;2023-05-10T11:54:08;2.28;;;1.77;;
22644;SDS011;11489;50.834;6.752;2023-05-10T11:56:36;2.47;;;1.95;;
22644;SDS011;11489;50.834;6.752;2023-05-10T11:59:03;1.92;;;1.70;;
22644;SDS011;11489;50.834;6.752;2023-05-10T12:01:29;3.65;;;1.83;;
22644;SDS011;11489;50.834;6.752;2023-05-10T12:03:56;1.67;;;1.42;;
22644;SDS011;11489;50.834;6.752;2023-05-10T12:06:29;1.58;;;1.38;;
22644;SDS011;11489;50.834;6.752;2023-05-10T12:08:57;1.40;;;1.20;;
22644;SDS011;11489;50.834;6.752;2023-05-10T12:11:26;2.05;;;1.40;;
22644;SDS011;11489;50.834;6.752;2023-05-10T12:13:53;2.30;;;1.45;;
22644;SDS011;11489;50.834;6.752;2023-05-10T12:16:24;1.80;;;1.65;;
22644;SDS011;11489;50.834;6.752;2023-05-10T12:18:51;1.50;;;1.20;;
22644;SDS011;11489;50.834;6.752;2023-05-10T12:21:21;1.58;;;1.30;;
22644;SDS011;11489;50.834;6.752;2023-05-10T12:23:51;1.58;;;1.27;;
22644;SDS011;11489;50.834;6.752;2023-05-10T12:26:21;2.08;;;1.50;;
22644;SDS011;11489;50.834;6.752;2023-05-10T12:28:47;2.05;;;1.60;;
22644;SDS011;11489;50.834;6.752;2023-05-10T12:31:13;2.35;;;1.10;;
22644;SDS011;11489;50.834;6.752;2023-05-10T12:33:39;1.05;;;0.95;;
22644;SDS011;11489;50.834;6.752;2023-05-10T12:36:10;1.27;;;1.05;;
22644;SDS011;11489;50.834;6.752;2023-05-10T12:38:43;1.65;;;1.20;;
22644;SDS011;11489;50.834;6.752;2023-05-10T12:41:14;1.08;;;0.98;;
22644;SDS011;11489;50.834;6.752;2023-05-10T12:43:41;1.90;;;1.40;;
22644;SDS011;11489;50.834;6.752;2023-05-10T12:46:07;0.90;;;0.82;;
22644;SDS011;11489;50.834;6.752;2023-05-10T12:48:34;1.20;;;1.10;;
22644;SDS011;11489;50.834;6.752;2023-05-10T12:51:04;1.05;;;0.98;;
22644;SDS011;11489;50.834;6.752;2023-05-10T12:53:30;1.45;;;1.10;;
22644;SDS011;11489;50.834;6.752;2023-05-10T12:55:56;1.33;;;1.05;;
22644;SDS011;11489;50.834;6.752;2023-05-10T12:58:22;3.10;;;1.00;;
22644;SDS011;11489;50.834;6.752;2023-05-10T13:00:48;1.60;;;1.40;;
22644;SDS011;11489;50.834;6.752;2023-05-10T13:03:14;1.83;;;1.40;;
22644;SDS011;11489;50.834;6.752;2023-05-10T13:05:40;1.20;;;1.10;;
22644;SDS011;11489;50.834;6.752;2023-05-10T13:08:06;1.55;;;1.42;;
22644;SDS011;11489;50.834;6.752;2023-05-10T13:10:32;1.83;;;1.40;;
22644;SDS011;11489;50.834;6.752;2023-05-10T13:12:58;1.75;;;1.30;;
22644;SDS011;11489;50.834;6.752;2023-05-10T13:15:24;2.28;;;1.17;;
22644;SDS011;11489;50.834;6.752;2023-05-10T13:17:50;1.13;;;1.02;;
22644;SDS011;11489;50.834;6.752;2023-05-10T13:20:16;2.05;;;1.10;;
22644;SDS011;11489;50.834;6.752;2023-05-10T13:22:45;0.85;;;0.85;;
22644;SDS011;11489;50.834;6.752;2023-05-10T13:25:11;1.00;;;0.90;;
22644;SDS011;11489;50.834;6.752;2023-05-10T13:27:37;1.35;;;0.90;;
22644;SDS011;11489;50.834;6.752;2023-05-10T13:30:06;0.98;;;0.80;;
22644;SDS011;11489;50.834;6.752;2023-05-10T13:32:33;1.02;;;0.93;;
22644;SDS011;11489;50.834;6.752;2023-05-10T13:34:59;1.40;;;1.10;;
22644;SDS011;11489;50.834;6.752;2023-05-10T13:37:25;1.48;;;1.10;;
22644;SDS011;11489;50.834;6.752;2023-05-10T13:39:51;2.08;;;1.00;;
22644;SDS011;11489;50.834;6.752;2023-05-10T13:42:17;1.40;;;1.25;;
22644;SDS011;11489;50.834;6.752;2023-05-10T13:44:43;1.70;;;1.27;;
22644;SDS011;11489;50.834;6.752;2023-05-10T13:47:09;3.63;;;1.50;;
22644;SDS011;11489;50.834;6.752;2023-05-10T13:49:35;3.33;;;1.63;;
22644;SDS011;11489;50.834;6.752;2023-05-10T13:52:01;3.08;;;1.90;;
22644;SDS011;11489;50.834;6.752;2023-05-10T13:54:38;2.42;;;2.17;;
22644;SDS011;11489;50.834;6.752;2023-05-10T13:57:06;2.30;;;2.10;;
22644;SDS011;11489;50.834;6.752;2023-05-10T13:59:32;1.92;;;1.70;;
22644;SDS011;11489;50.834;6.752;2023-05-10T14:01:58;1.88;;;1.70;;
22644;SDS011;11489;50.834;6.752;2023-05-10T14:04:24;2.08;;;1.85;;
22644;SDS011;11489;50.834;6.752;2023-05-10T14:06:50;1.73;;;1.30;;
22644;SDS011;11489;50.834;6.752;2023-05-10T14:09:16;1.40;;;1.30;;
22644;SDS011;11489;50.834;6.752;2023-05-10T14:11:41;2.38;;;1.55;;
22644;SDS011;11489;50.834;6.752;2023-05-10T14:14:11;2.35;;;1.60;;
22644;SDS011;11489;50.834;6.752;2023-05-10T14:16:37;3.17;;;1.65;;
22644;SDS011;11489;50.834;6.752;2023-05-10T14:19:03;2.30;;;2.08;;
22644;SDS011;11489;50.834;6.752;2023-05-10T14:21:29;2.08;;;1.90;;
22644;SDS011;11489;50.834;6.752;2023-05-10T14:23:55;6.88;;;2.28;;
22644;SDS011;11489;50.834;6.752;2023-05-10T14:26:22;2.30;;;2.10;;
22644;SDS011;11489;50.834;6.752;2023-05-10T14:28:47;2.53;;;2.10;;
22644;SDS011;11489;50.834;6.752;2023-05-10T14:31:13;2.40;;;2.20;;
22644;SDS011;11489;50.834;6.752;2023-05-10T14:33:39;3.95;;;1.90;;
22644;SDS011;11489;50.834;6.752;2023-05-10T14:36:06;2.13;;;1.92;;
22644;SDS011;11489;50.834;6.752;2023-05-10T14:38:32;2.60;;;1.83;;
22644;SDS011;11489;50.834;6.752;2023-05-10T14:40:58;3.33;;;2.08;;
22644;SDS011;11489;50.834;6.752;2023-05-10T14:43:23;3.58;;;2.30;;
22644;SDS011;11489;50.834;6.752;2023-05-10T14:45:49;3.58;;;2.00;;
22644;SDS011;11489;50.834;6.752;2023-05-10T14:48:15;2.75;;;1.98;;
22644;SDS011;11489;50.834;6.752;2023-05-10T14:50:42;2.88;;;1.95;;
22644;SDS011;11489;50.834;6.752;2023-05-10T14:53:09;2.67;;;1.85;;
22644;SDS011;11489;50.834;6.752;2023-05-10T14:55:34;2.75;;;1.67;;
22644;SDS011;11489;50.834;6.752;2023-05-10T14:58:01;2.67;;;1.92;;
22644;SDS011;11489;50.834;6.752;2023-05-10T15:00:28;2.10;;;1.85;;
22644;SDS011;11489;50.834;6.752;2023-05-10T15:02:54;2.97;;;1.85;;